Granite Falls, WA (98252)

10:40 PM PST on February 13, 2016 (GMT -0800)
CopperMoon, Woods Lake Road | | Change Station
CLOSE
Current Station
Personal Weather Station
Location: Monroe, WA
Elevation: 712 ft
Nearby Weather Stations

Elev 712 ft 47.93 °N, 121.85 °W | Updated 4 minutes ago

Rain
Rain
42.3 °F
Feels Like 42 °F
N
0.0
Wind Variable Wind from North
Gusts 0.0 mph

Today
High -- | Low -- °F
--% Chance of Precip.
Yesterday
High -- | Low -- °F
Precip. -- in
Pressure 30.10 in
Visibility 10.0 miles
Clouds Overcast 1500 ft
Windchill 42 °F
Dew Point 42 °F
Humidity 99%
Rainfall 0.38 in
Snow Depth Not available.
7:17 AM 5:25 PM
Waxing Crescent, 38% visible
METAR KAWO 140635Z AUTO 14010KT 10SM OVC015 08/04 A3010 RMK AO1
Pressure 30.10 in
Visibility 10.0 miles
Clouds Overcast 1500 ft
Windchill 42 °F
Dew Point 42 °F
Humidity 99%
Rainfall 0.38 in
Snow Depth Not available.
7:17 AM 5:25 PM
Waxing Crescent, 38% visible
METAR KAWO 140635Z AUTO 14010KT 10SM OVC015 08/04 A3010 RMK AO1

10-Day Weather Forecast

Almanac

Astronomy

Feb. 13, 2016 Rise Set
Actual Time
Civil Twilight
Nautical Twilight
Astronomical Twilight
Moon
Length of Visible Light
Length of Day
Tomorrow will be .
, % of the Moon is Illuminated

Today's Extremes

State Highs State Lows

Community

WunderPhotos

Upload Photos

1,892,757 photos uploaded!

WunderBlog® & News

Nearby

Air Quality

  Air Quality AQ Index Pollutant
Not available.

Snow Depth

Station Depth Elevation

Earthquake Activity

City Distance Mag. Time & Date
Minimum magnitude displayed is 2.5.

Coastal Water Temperatures

Place Temperature

Stations

Nearby Weather Stations

Station Location Temp. Windchill Dew Point Humidity Wind Precip. Elev Updated Type
                   

Watches & Warnings

There are currently no watches in effect.